sensor_id;sensor_type;location;lat;lon;timestamp;P1;durP1;ratioP1;P2;durP2;ratioP2
60919;SDS011;59039;52.108;19.942;2023-12-04T00:01:45;24.50;;;12.70;;
60919;SDS011;59039;52.108;19.942;2023-12-04T00:04:11;20.60;;;12.00;;
60919;SDS011;59039;52.108;19.942;2023-12-04T00:06:36;20.20;;;12.20;;
60919;SDS011;59039;52.108;19.942;2023-12-04T00:09:01;23.10;;;11.50;;
60919;SDS011;59039;52.108;19.942;2023-12-04T00:11:26;28.20;;;13.80;;
60919;SDS011;59039;52.108;19.942;2023-12-04T00:13:51;21.60;;;11.90;;
60919;SDS011;59039;52.108;19.942;2023-12-04T00:16:17;23.30;;;11.70;;
60919;SDS011;59039;52.108;19.942;2023-12-04T00:18:42;18.90;;;10.90;;
60919;SDS011;59039;52.108;19.942;2023-12-04T00:21:07;21.30;;;10.10;;
60919;SDS011;59039;52.108;19.942;2023-12-04T00:23:32;14.20;;;7.90;;
60919;SDS011;59039;52.108;19.942;2023-12-04T00:25:58;13.40;;;8.20;;
60919;SDS011;59039;52.108;19.942;2023-12-04T00:28:23;16.60;;;9.10;;
60919;SDS011;59039;52.108;19.942;2023-12-04T00:30:48;15.40;;;8.80;;
60919;SDS011;59039;52.108;19.942;2023-12-04T00:33:13;15.70;;;8.90;;
60919;SDS011;59039;52.108;19.942;2023-12-04T00:35:38;15.90;;;8.90;;
60919;SDS011;59039;52.108;19.942;2023-12-04T00:38:04;13.90;;;8.70;;
60919;SDS011;59039;52.108;19.942;2023-12-04T00:40:29;14.40;;;8.60;;
60919;SDS011;59039;52.108;19.942;2023-12-04T00:42:54;16.10;;;8.80;;
60919;SDS011;59039;52.108;19.942;2023-12-04T00:45:19;19.80;;;10.00;;
60919;SDS011;59039;52.108;19.942;2023-12-04T00:47:44;17.10;;;9.10;;
60919;SDS011;59039;52.108;19.942;2023-12-04T00:50:10;15.50;;;8.10;;
60919;SDS011;59039;52.108;19.942;2023-12-04T00:52:36;18.50;;;9.60;;
60919;SDS011;59039;52.108;19.942;2023-12-04T00:55:01;20.30;;;11.10;;
60919;SDS011;59039;52.108;19.942;2023-12-04T00:57:26;19.70;;;9.50;;
60919;SDS011;59039;52.108;19.942;2023-12-04T00:59:51;15.60;;;8.70;;
60919;SDS011;59039;52.108;19.942;2023-12-04T01:02:16;15.50;;;7.90;;
60919;SDS011;59039;52.108;19.942;2023-12-04T01:04:42;15.50;;;8.30;;
60919;SDS011;59039;52.108;19.942;2023-12-04T01:07:07;17.10;;;9.30;;
60919;SDS011;59039;52.108;19.942;2023-12-04T01:09:35;17.80;;;9.30;;
60919;SDS011;59039;52.108;19.942;2023-12-04T01:12:01;18.40;;;9.80;;
60919;SDS011;59039;52.108;19.942;2023-12-04T01:14:27;21.60;;;10.60;;
60919;SDS011;59039;52.108;19.942;2023-12-04T01:16:52;17.80;;;9.20;;
60919;SDS011;59039;52.108;19.942;2023-12-04T01:19:17;18.30;;;9.30;;
60919;SDS011;59039;52.108;19.942;2023-12-04T01:21:42;19.10;;;9.70;;
60919;SDS011;59039;52.108;19.942;2023-12-04T01:24:08;21.20;;;11.60;;
60919;SDS011;59039;52.108;19.942;2023-12-04T01:26:33;19.20;;;10.10;;
60919;SDS011;59039;52.108;19.942;2023-12-04T01:28:58;18.00;;;10.90;;
60919;SDS011;59039;52.108;19.942;2023-12-04T01:31:24;27.70;;;13.10;;
60919;SDS011;59039;52.108;19.942;2023-12-04T01:33:49;20.70;;;11.00;;
60919;SDS011;59039;52.108;19.942;2023-12-04T01:36:14;23.90;;;12.70;;
60919;SDS011;59039;52.108;19.942;2023-12-04T01:38:39;23.40;;;11.70;;
60919;SDS011;59039;52.108;19.942;2023-12-04T01:41:04;21.80;;;11.60;;
60919;SDS011;59039;52.108;19.942;2023-12-04T01:43:30;21.40;;;12.50;;
60919;SDS011;59039;52.108;19.942;2023-12-04T01:45:56;26.00;;;13.70;;
60919;SDS011;59039;52.108;19.942;2023-12-04T01:48:22;24.90;;;14.30;;
60919;SDS011;59039;52.108;19.942;2023-12-04T01:50:48;27.40;;;14.80;;
60919;SDS011;59039;52.108;19.942;2023-12-04T01:53:14;27.70;;;14.50;;
60919;SDS011;59039;52.108;19.942;2023-12-04T01:55:39;24.80;;;14.10;;
60919;SDS011;59039;52.108;19.942;2023-12-04T01:58:05;23.80;;;13.90;;
60919;SDS011;59039;52.108;19.942;2023-12-04T02:00:31;23.60;;;14.00;;
60919;SDS011;59039;52.108;19.942;2023-12-04T02:02:57;24.90;;;14.60;;
60919;SDS011;59039;52.108;19.942;2023-12-04T02:05:24;27.00;;;14.30;;
60919;SDS011;59039;52.108;19.942;2023-12-04T02:07:51;28.60;;;14.70;;
60919;SDS011;59039;52.108;19.942;2023-12-04T02:10:17;24.40;;;13.40;;
60919;SDS011;59039;52.108;19.942;2023-12-04T02:12:42;28.30;;;12.80;;
60919;SDS011;59039;52.108;19.942;2023-12-04T02:15:08;27.80;;;13.60;;
60919;SDS011;59039;52.108;19.942;2023-12-04T02:17:33;25.00;;;12.80;;
60919;SDS011;59039;52.108;19.942;2023-12-04T02:19:59;27.80;;;13.40;;
60919;SDS011;59039;52.108;19.942;2023-12-04T02:22:24;29.30;;;14.80;;
60919;SDS011;59039;52.108;19.942;2023-12-04T02:24:49;29.30;;;14.90;;
60919;SDS011;59039;52.108;19.942;2023-12-04T02:27:20;29.20;;;13.60;;
60919;SDS011;59039;52.108;19.942;2023-12-04T02:29:55;27.00;;;13.50;;
60919;SDS011;59039;52.108;19.942;2023-12-04T02:32:23;25.90;;;13.70;;
60919;SDS011;59039;52.108;19.942;2023-12-04T02:34:52;27.40;;;14.70;;
60919;SDS011;59039;52.108;19.942;2023-12-04T02:37:20;29.90;;;16.30;;
60919;SDS011;59039;52.108;19.942;2023-12-04T02:39:47;30.90;;;15.00;;
60919;SDS011;59039;52.108;19.942;2023-12-04T02:42:13;31.90;;;14.90;;
60919;SDS011;59039;52.108;19.942;2023-12-04T02:44:38;28.60;;;15.00;;
60919;SDS011;59039;52.108;19.942;2023-12-04T02:47:03;29.80;;;15.60;;
60919;SDS011;59039;52.108;19.942;2023-12-04T02:49:29;28.00;;;14.00;;
60919;SDS011;59039;52.108;19.942;2023-12-04T02:51:54;30.00;;;15.50;;
60919;SDS011;59039;52.108;19.942;2023-12-04T02:54:19;27.30;;;14.60;;
60919;SDS011;59039;52.108;19.942;2023-12-04T02:56:44;28.10;;;15.50;;
60919;SDS011;59039;52.108;19.942;2023-12-04T02:59:09;29.00;;;15.10;;
60919;SDS011;59039;52.108;19.942;2023-12-04T03:01:35;33.30;;;16.20;;
60919;SDS011;59039;52.108;19.942;2023-12-04T03:04:00;28.20;;;14.50;;
60919;SDS011;59039;52.108;19.942;2023-12-04T03:06:25;31.40;;;13.70;;
60919;SDS011;59039;52.108;19.942;2023-12-04T03:08:50;31.20;;;15.50;;
60919;SDS011;59039;52.108;19.942;2023-12-04T03:11:16;28.70;;;15.60;;
60919;SDS011;59039;52.108;19.942;2023-12-04T03:13:41;28.20;;;15.60;;
60919;SDS011;59039;52.108;19.942;2023-12-04T03:16:14;27.70;;;14.70;;
60919;SDS011;59039;52.108;19.942;2023-12-04T03:18:40;29.00;;;15.50;;
60919;SDS011;59039;52.108;19.942;2023-12-04T03:21:06;27.30;;;14.50;;
60919;SDS011;59039;52.108;19.942;2023-12-04T03:23:31;27.90;;;14.10;;
60919;SDS011;59039;52.108;19.942;2023-12-04T03:25:56;29.50;;;14.10;;
60919;SDS011;59039;52.108;19.942;2023-12-04T03:28:22;26.10;;;13.30;;
60919;SDS011;59039;52.108;19.942;2023-12-04T03:30:47;30.50;;;15.00;;
60919;SDS011;59039;52.108;19.942;2023-12-04T03:33:12;28.60;;;15.50;;
60919;SDS011;59039;52.108;19.942;2023-12-04T03:35:37;29.10;;;15.40;;
60919;SDS011;59039;52.108;19.942;2023-12-04T03:38:02;26.70;;;14.40;;
60919;SDS011;59039;52.108;19.942;2023-12-04T03:40:28;28.70;;;13.60;;
60919;SDS011;59039;52.108;19.942;2023-12-04T03:42:53;30.10;;;14.20;;
60919;SDS011;59039;52.108;19.942;2023-12-04T03:45:18;27.50;;;14.30;;
60919;SDS011;59039;52.108;19.942;2023-12-04T03:47:43;32.30;;;15.10;;
60919;SDS011;59039;52.108;19.942;2023-12-04T03:50:09;30.10;;;14.90;;
60919;SDS011;59039;52.108;19.942;2023-12-04T03:52:34;31.20;;;15.80;;
60919;SDS011;59039;52.108;19.942;2023-12-04T03:54:59;30.30;;;15.50;;
60919;SDS011;59039;52.108;19.942;2023-12-04T03:57:24;29.70;;;14.90;;
60919;SDS011;59039;52.108;19.942;2023-12-04T03:59:50;34.80;;;16.70;;
60919;SDS011;59039;52.108;19.942;2023-12-04T04:02:15;32.60;;;17.20;;
60919;SDS011;59039;52.108;19.942;2023-12-04T04:04:40;36.70;;;16.30;;
60919;SDS011;59039;52.108;19.942;2023-12-04T04:07:05;35.50;;;16.20;;
60919;SDS011;59039;52.108;19.942;2023-12-04T04:09:30;34.30;;;17.20;;
60919;SDS011;59039;52.108;19.942;2023-12-04T04:11:56;37.10;;;16.20;;
60919;SDS011;59039;52.108;19.942;2023-12-04T04:14:21;33.30;;;16.30;;
60919;SDS011;59039;52.108;19.942;2023-12-04T04:16:46;33.30;;;15.40;;
60919;SDS011;59039;52.108;19.942;2023-12-04T04:19:11;36.10;;;17.60;;
60919;SDS011;59039;52.108;19.942;2023-12-04T04:21:40;37.40;;;17.50;;
60919;SDS011;59039;52.108;19.942;2023-12-04T04:24:05;33.70;;;17.00;;
60919;SDS011;59039;52.108;19.942;2023-12-04T04:26:30;40.20;;;17.80;;
60919;SDS011;59039;52.108;19.942;2023-12-04T04:28:56;40.50;;;19.00;;
60919;SDS011;59039;52.108;19.942;2023-12-04T04:31:21;34.70;;;16.90;;
60919;SDS011;59039;52.108;19.942;2023-12-04T04:33:46;34.00;;;15.80;;
60919;SDS011;59039;52.108;19.942;2023-12-04T04:36:11;38.20;;;17.90;;
60919;SDS011;59039;52.108;19.942;2023-12-04T04:38:38;35.80;;;17.60;;
60919;SDS011;59039;52.108;19.942;2023-12-04T04:41:04;33.30;;;15.90;;
60919;SDS011;59039;52.108;19.942;2023-12-04T04:43:29;38.70;;;18.50;;
60919;SDS011;59039;52.108;19.942;2023-12-04T04:45:55;42.00;;;19.50;;
60919;SDS011;59039;52.108;19.942;2023-12-04T04:48:20;45.20;;;20.30;;
60919;SDS011;59039;52.108;19.942;2023-12-04T04:50:45;39.20;;;19.30;;
60919;SDS011;59039;52.108;19.942;2023-12-04T04:53:10;42.90;;;20.00;;
60919;SDS011;59039;52.108;19.942;2023-12-04T04:55:35;37.70;;;20.20;;
60919;SDS011;59039;52.108;19.942;2023-12-04T04:58:01;47.80;;;22.40;;
60919;SDS011;59039;52.108;19.942;2023-12-04T05:00:26;41.30;;;19.20;;
60919;SDS011;59039;52.108;19.942;2023-12-04T05:02:51;41.50;;;20.40;;
60919;SDS011;59039;52.108;19.942;2023-12-04T05:05:16;39.40;;;18.20;;
60919;SDS011;59039;52.108;19.942;2023-12-04T05:07:41;37.70;;;17.40;;
60919;SDS011;59039;52.108;19.942;2023-12-04T05:10:07;36.40;;;17.70;;
60919;SDS011;59039;52.108;19.942;2023-12-04T05:12:32;43.30;;;19.90;;
60919;SDS011;59039;52.108;19.942;2023-12-04T05:14:57;36.10;;;18.50;;
60919;SDS011;59039;52.108;19.942;2023-12-04T05:17:23;38.80;;;18.50;;
60919;SDS011;59039;52.108;19.942;2023-12-04T05:19:48;42.60;;;20.40;;
60919;SDS011;59039;52.108;19.942;2023-12-04T05:22:13;48.10;;;21.10;;
60919;SDS011;59039;52.108;19.942;2023-12-04T05:24:38;43.60;;;21.40;;
60919;SDS011;59039;52.108;19.942;2023-12-04T05:27:04;45.70;;;20.60;;
60919;SDS011;59039;52.108;19.942;2023-12-04T05:29:29;39.40;;;20.20;;
60919;SDS011;59039;52.108;19.942;2023-12-04T05:31:54;43.30;;;20.70;;
60919;SDS011;59039;52.108;19.942;2023-12-04T05:34:19;44.70;;;20.90;;
60919;SDS011;59039;52.108;19.942;2023-12-04T05:36:45;47.70;;;22.40;;
60919;SDS011;59039;52.108;19.942;2023-12-04T05:39:10;51.70;;;22.90;;
60919;SDS011;59039;52.108;19.942;2023-12-04T05:41:35;51.50;;;22.80;;
60919;SDS011;59039;52.108;19.942;2023-12-04T05:44:00;62.90;;;27.90;;
60919;SDS011;59039;52.108;19.942;2023-12-04T05:46:26;61.10;;;26.70;;
60919;SDS011;59039;52.108;19.942;2023-12-04T05:48:51;68.60;;;28.60;;
60919;SDS011;59039;52.108;19.942;2023-12-04T05:51:16;79.40;;;28.60;;
60919;SDS011;59039;52.108;19.942;2023-12-04T05:53:41;74.10;;;29.40;;
60919;SDS011;59039;52.108;19.942;2023-12-04T05:56:07;78.90;;;29.50;;
60919;SDS011;59039;52.108;19.942;2023-12-04T05:58:32;70.20;;;28.00;;
60919;SDS011;59039;52.108;19.942;2023-12-04T06:00:58;57.80;;;24.60;;
60919;SDS011;59039;52.108;19.942;2023-12-04T06:03:23;52.60;;;22.40;;
60919;SDS011;59039;52.108;19.942;2023-12-04T06:05:48;49.80;;;23.60;;
60919;SDS011;59039;52.108;19.942;2023-12-04T06:08:13;43.00;;;20.30;;
60919;SDS011;59039;52.108;19.942;2023-12-04T06:10:38;38.90;;;18.80;;
60919;SDS011;59039;52.108;19.942;2023-12-04T06:13:04;44.60;;;21.60;;
60919;SDS011;59039;52.108;19.942;2023-12-04T06:15:29;49.40;;;22.80;;
60919;SDS011;59039;52.108;19.942;2023-12-04T06:17:54;46.80;;;20.40;;
60919;SDS011;59039;52.108;19.942;2023-12-04T06:20:19;46.00;;;21.10;;
60919;SDS011;59039;52.108;19.942;2023-12-04T06:22:45;46.90;;;21.00;;
60919;SDS011;59039;52.108;19.942;2023-12-04T06:25:10;48.40;;;20.30;;
60919;SDS011;59039;52.108;19.942;2023-12-04T06:27:36;43.90;;;20.80;;
60919;SDS011;59039;52.108;19.942;2023-12-04T06:30:02;49.50;;;21.60;;
60919;SDS011;59039;52.108;19.942;2023-12-04T06:32:27;53.30;;;22.60;;
60919;SDS011;59039;52.108;19.942;2023-12-04T06:34:53;44.80;;;19.70;;
60919;SDS011;59039;52.108;19.942;2023-12-04T06:37:18;47.20;;;21.60;;
60919;SDS011;59039;52.108;19.942;2023-12-04T06:39:44;49.60;;;21.90;;
60919;SDS011;59039;52.108;19.942;2023-12-04T06:42:12;47.90;;;22.20;;
60919;SDS011;59039;52.108;19.942;2023-12-04T06:44:38;55.10;;;24.40;;
60919;SDS011;59039;52.108;19.942;2023-12-04T06:47:04;59.60;;;27.40;;
60919;SDS011;59039;52.108;19.942;2023-12-04T06:49:32;53.90;;;25.00;;
60919;SDS011;59039;52.108;19.942;2023-12-04T06:51:58;52.30;;;22.70;;
60919;SDS011;59039;52.108;19.942;2023-12-04T06:54:24;55.40;;;24.60;;
60919;SDS011;59039;52.108;19.942;2023-12-04T06:56:49;52.30;;;23.90;;
60919;SDS011;59039;52.108;19.942;2023-12-04T06:59:14;49.10;;;22.10;;
60919;SDS011;59039;52.108;19.942;2023-12-04T07:01:40;41.40;;;21.20;;
60919;SDS011;59039;52.108;19.942;2023-12-04T07:04:05;46.40;;;21.00;;
60919;SDS011;59039;52.108;19.942;2023-12-04T07:06:30;45.90;;;20.60;;
60919;SDS011;59039;52.108;19.942;2023-12-04T07:08:55;55.50;;;24.20;;
60919;SDS011;59039;52.108;19.942;2023-12-04T07:11:21;62.50;;;26.40;;
60919;SDS011;59039;52.108;19.942;2023-12-04T07:13:46;52.50;;;24.10;;
60919;SDS011;59039;52.108;19.942;2023-12-04T07:16:11;68.60;;;30.00;;
60919;SDS011;59039;52.108;19.942;2023-12-04T07:18:36;71.20;;;29.60;;
60919;SDS011;59039;52.108;19.942;2023-12-04T07:21:01;76.10;;;33.70;;
60919;SDS011;59039;52.108;19.942;2023-12-04T07:23:27;60.60;;;24.50;;
60919;SDS011;59039;52.108;19.942;2023-12-04T07:25:52;56.30;;;23.40;;
60919;SDS011;59039;52.108;19.942;2023-12-04T07:28:17;54.00;;;22.60;;
60919;SDS011;59039;52.108;19.942;2023-12-04T07:30:43;46.60;;;22.70;;
60919;SDS011;59039;52.108;19.942;2023-12-04T07:33:08;51.70;;;22.50;;
60919;SDS011;59039;52.108;19.942;2023-12-04T07:35:33;52.10;;;24.60;;
60919;SDS011;59039;52.108;19.942;2023-12-04T07:37:58;62.40;;;31.30;;
60919;SDS011;59039;52.108;19.942;2023-12-04T07:40:23;61.50;;;29.70;;
60919;SDS011;59039;52.108;19.942;2023-12-04T07:42:49;54.60;;;25.90;;
60919;SDS011;59039;52.108;19.942;2023-12-04T07:45:14;50.30;;;21.30;;
60919;SDS011;59039;52.108;19.942;2023-12-04T07:47:39;41.50;;;19.60;;
60919;SDS011;59039;52.108;19.942;2023-12-04T07:50:04;47.70;;;19.70;;
60919;SDS011;59039;52.108;19.942;2023-12-04T07:52:30;39.30;;;18.40;;
60919;SDS011;59039;52.108;19.942;2023-12-04T07:54:55;39.30;;;19.40;;
60919;SDS011;59039;52.108;19.942;2023-12-04T07:57:21;40.90;;;18.50;;
60919;SDS011;59039;52.108;19.942;2023-12-04T07:59:46;38.80;;;19.90;;
60919;SDS011;59039;52.108;19.942;2023-12-04T08:02:11;42.00;;;19.40;;
60919;SDS011;59039;52.108;19.942;2023-12-04T08:04:36;37.90;;;18.80;;
60919;SDS011;59039;52.108;19.942;2023-12-04T08:07:01;37.70;;;17.40;;
60919;SDS011;59039;52.108;19.942;2023-12-04T08:09:27;37.70;;;19.80;;
60919;SDS011;59039;52.108;19.942;2023-12-04T08:11:52;37.80;;;18.90;;
60919;SDS011;59039;52.108;19.942;2023-12-04T08:14:17;37.00;;;17.90;;
60919;SDS011;59039;52.108;19.942;2023-12-04T08:16:42;43.10;;;21.60;;
60919;SDS011;59039;52.108;19.942;2023-12-04T08:19:07;45.10;;;20.70;;
60919;SDS011;59039;52.108;19.942;2023-12-04T08:21:33;40.80;;;19.30;;
60919;SDS011;59039;52.108;19.942;2023-12-04T08:23:58;45.50;;;20.40;;
60919;SDS011;59039;52.108;19.942;2023-12-04T08:26:24;37.20;;;19.30;;
60919;SDS011;59039;52.108;19.942;2023-12-04T08:28:50;46.10;;;20.40;;
60919;SDS011;59039;52.108;19.942;2023-12-04T08:31:18;38.60;;;20.10;;
60919;SDS011;59039;52.108;19.942;2023-12-04T08:33:43;38.50;;;19.50;;
60919;SDS011;59039;52.108;19.942;2023-12-04T08:36:09;32.40;;;17.30;;
60919;SDS011;59039;52.108;19.942;2023-12-04T08:38:35;41.20;;;20.10;;
60919;SDS011;59039;52.108;19.942;2023-12-04T08:41:00;44.00;;;19.70;;
60919;SDS011;59039;52.108;19.942;2023-12-04T08:43:25;46.10;;;21.40;;
60919;SDS011;59039;52.108;19.942;2023-12-04T08:45:51;44.40;;;22.80;;
60919;SDS011;59039;52.108;19.942;2023-12-04T08:48:16;56.80;;;28.00;;
60919;SDS011;59039;52.108;19.942;2023-12-04T08:50:41;43.10;;;22.20;;
60919;SDS011;59039;52.108;19.942;2023-12-04T08:53:06;40.10;;;20.60;;
60919;SDS011;59039;52.108;19.942;2023-12-04T08:55:31;37.10;;;19.50;;
60919;SDS011;59039;52.108;19.942;2023-12-04T08:57:57;39.50;;;18.90;;
60919;SDS011;59039;52.108;19.942;2023-12-04T09:00:22;41.10;;;20.70;;
60919;SDS011;59039;52.108;19.942;2023-12-04T09:02:47;37.40;;;17.30;;
60919;SDS011;59039;52.108;19.942;2023-12-04T09:05:13;38.50;;;18.20;;
60919;SDS011;59039;52.108;19.942;2023-12-04T09:07:39;43.40;;;21.00;;
60919;SDS011;59039;52.108;19.942;2023-12-04T09:10:04;42.70;;;20.30;;
60919;SDS011;59039;52.108;19.942;2023-12-04T09:12:30;45.10;;;21.80;;
60919;SDS011;59039;52.108;19.942;2023-12-04T09:14:55;41.30;;;20.80;;
60919;SDS011;59039;52.108;19.942;2023-12-04T09:17:20;57.30;;;26.40;;
60919;SDS011;59039;52.108;19.942;2023-12-04T09:19:45;55.40;;;24.60;;
60919;SDS011;59039;52.108;19.942;2023-12-04T09:22:11;54.50;;;27.60;;
60919;SDS011;59039;52.108;19.942;2023-12-04T09:24:36;65.60;;;26.60;;
60919;SDS011;59039;52.108;19.942;2023-12-04T09:27:01;58.00;;;25.10;;
60919;SDS011;59039;52.108;19.942;2023-12-04T09:29:26;47.80;;;24.80;;
60919;SDS011;59039;52.108;19.942;2023-12-04T09:31:52;47.80;;;21.70;;
60919;SDS011;59039;52.108;19.942;2023-12-04T09:34:17;42.90;;;20.70;;
60919;SDS011;59039;52.108;19.942;2023-12-04T09:36:42;39.90;;;19.10;;
60919;SDS011;59039;52.108;19.942;2023-12-04T09:39:07;38.30;;;19.60;;
60919;SDS011;59039;52.108;19.942;2023-12-04T09:41:32;37.50;;;19.70;;
60919;SDS011;59039;52.108;19.942;2023-12-04T09:43:58;38.80;;;21.00;;
60919;SDS011;59039;52.108;19.942;2023-12-04T09:46:24;42.70;;;20.90;;
60919;SDS011;59039;52.108;19.942;2023-12-04T09:48:49;41.90;;;21.30;;
60919;SDS011;59039;52.108;19.942;2023-12-04T09:51:17;45.60;;;23.90;;
60919;SDS011;59039;52.108;19.942;2023-12-04T09:53:43;47.30;;;22.40;;
60919;SDS011;59039;52.108;19.942;2023-12-04T09:56:12;41.60;;;20.30;;
60919;SDS011;59039;52.108;19.942;2023-12-04T09:58:40;50.00;;;24.90;;
60919;SDS011;59039;52.108;19.942;2023-12-04T10:01:06;58.60;;;25.60;;
60919;SDS011;59039;52.108;19.942;2023-12-04T10:03:33;70.00;;;29.40;;
60919;SDS011;59039;52.108;19.942;2023-12-04T10:05:59;71.30;;;29.60;;
60919;SDS011;59039;52.108;19.942;2023-12-04T10:08:25;70.40;;;28.90;;
60919;SDS011;59039;52.108;19.942;2023-12-04T10:10:50;67.80;;;27.60;;
60919;SDS011;59039;52.108;19.942;2023-12-04T10:13:15;56.30;;;26.90;;
60919;SDS011;59039;52.108;19.942;2023-12-04T10:15:47;52.60;;;24.00;;
60919;SDS011;59039;52.108;19.942;2023-12-04T10:18:29;49.80;;;25.10;;
60919;SDS011;59039;52.108;19.942;2023-12-04T10:20:56;59.00;;;26.00;;
60919;SDS011;59039;52.108;19.942;2023-12-04T10:23:23;57.60;;;26.30;;
60919;SDS011;59039;52.108;19.942;2023-12-04T10:26:04;60.10;;;25.80;;
60919;SDS011;59039;52.108;19.942;2023-12-04T10:28:30;53.90;;;24.10;;
60919;SDS011;59039;52.108;19.942;2023-12-04T10:30:55;47.40;;;21.60;;
60919;SDS011;59039;52.108;19.942;2023-12-04T10:33:20;49.60;;;23.20;;
60919;SDS011;59039;52.108;19.942;2023-12-04T10:35:45;56.80;;;26.00;;
60919;SDS011;59039;52.108;19.942;2023-12-04T10:38:11;53.20;;;24.90;;
60919;SDS011;59039;52.108;19.942;2023-12-04T10:40:36;53.00;;;24.40;;
60919;SDS011;59039;52.108;19.942;2023-12-04T10:43:12;51.00;;;24.40;;
60919;SDS011;59039;52.108;19.942;2023-12-04T10:45:37;51.00;;;24.60;;
60919;SDS011;59039;52.108;19.942;2023-12-04T10:48:04;63.60;;;29.00;;
60919;SDS011;59039;52.108;19.942;2023-12-04T10:50:31;68.10;;;31.30;;
60919;SDS011;59039;52.108;19.942;2023-12-04T10:52:58;65.50;;;30.80;;
60919;SDS011;59039;52.108;19.942;2023-12-04T10:55:24;56.20;;;25.60;;
60919;SDS011;59039;52.108;19.942;2023-12-04T10:57:50;56.10;;;26.50;;
60919;SDS011;59039;52.108;19.942;2023-12-04T11:00:18;54.40;;;24.60;;
60919;SDS011;59039;52.108;19.942;2023-12-04T11:02:45;43.60;;;23.10;;
60919;SDS011;59039;52.108;19.942;2023-12-04T11:05:12;48.10;;;24.10;;
60919;SDS011;59039;52.108;19.942;2023-12-04T11:07:44;59.50;;;28.40;;
60919;SDS011;59039;52.108;19.942;2023-12-04T11:10:12;62.10;;;29.70;;
60919;SDS011;59039;52.108;19.942;2023-12-04T11:12:40;63.30;;;28.80;;
60919;SDS011;59039;52.108;19.942;2023-12-04T11:15:10;66.10;;;29.60;;
60919;SDS011;59039;52.108;19.942;2023-12-04T11:17:41;55.90;;;26.00;;
60919;SDS011;59039;52.108;19.942;2023-12-04T11:20:10;58.90;;;28.90;;
60919;SDS011;59039;52.108;19.942;2023-12-04T11:22:38;59.90;;;27.10;;
60919;SDS011;59039;52.108;19.942;2023-12-04T11:25:04;73.00;;;31.60;;
60919;SDS011;59039;52.108;19.942;2023-12-04T11:27:31;66.40;;;30.30;;
60919;SDS011;59039;52.108;19.942;2023-12-04T11:29:57;50.60;;;26.10;;
60919;SDS011;59039;52.108;19.942;2023-12-04T11:32:24;50.40;;;24.20;;
60919;SDS011;59039;52.108;19.942;2023-12-04T11:34:50;54.80;;;26.80;;
60919;SDS011;59039;52.108;19.942;2023-12-04T11:37:15;52.60;;;25.30;;
60919;SDS011;59039;52.108;19.942;2023-12-04T11:39:41;51.00;;;26.50;;
60919;SDS011;59039;52.108;19.942;2023-12-04T11:42:06;52.80;;;25.10;;
60919;SDS011;59039;52.108;19.942;2023-12-04T11:44:31;53.90;;;26.30;;
60919;SDS011;59039;52.108;19.942;2023-12-04T11:47:04;55.60;;;26.50;;
60919;SDS011;59039;52.108;19.942;2023-12-04T11:49:30;51.80;;;28.80;;
60919;SDS011;59039;52.108;19.942;2023-12-04T11:51:57;55.60;;;26.40;;
60919;SDS011;59039;52.108;19.942;2023-12-04T11:54:26;63.50;;;29.20;;
60919;SDS011;59039;52.108;19.942;2023-12-04T11:56:56;59.50;;;30.10;;
60919;SDS011;59039;52.108;19.942;2023-12-04T11:59:22;54.80;;;27.50;;
60919;SDS011;59039;52.108;19.942;2023-12-04T12:01:49;64.10;;;29.50;;
60919;SDS011;59039;52.108;19.942;2023-12-04T12:04:15;68.90;;;30.00;;
60919;SDS011;59039;52.108;19.942;2023-12-04T12:06:40;61.40;;;29.50;;
60919;SDS011;59039;52.108;19.942;2023-12-04T12:09:06;68.80;;;32.60;;
60919;SDS011;59039;52.108;19.942;2023-12-04T12:11:32;72.10;;;31.00;;
60919;SDS011;59039;52.108;19.942;2023-12-04T12:13:57;65.70;;;32.60;;
60919;SDS011;59039;52.108;19.942;2023-12-04T12:16:24;70.70;;;36.00;;
60919;SDS011;59039;52.108;19.942;2023-12-04T12:18:49;70.70;;;35.50;;
60919;SDS011;59039;52.108;19.942;2023-12-04T12:21:15;56.60;;;28.60;;
60919;SDS011;59039;52.108;19.942;2023-12-04T12:23:40;55.40;;;27.00;;
60919;SDS011;59039;52.108;19.942;2023-12-04T12:26:05;63.40;;;30.50;;
60919;SDS011;59039;52.108;19.942;2023-12-04T12:28:31;61.00;;;30.40;;
60919;SDS011;59039;52.108;19.942;2023-12-04T12:30:56;60.30;;;28.50;;
60919;SDS011;59039;52.108;19.942;2023-12-04T12:33:26;54.00;;;28.00;;
60919;SDS011;59039;52.108;19.942;2023-12-04T12:35:51;52.80;;;26.30;;
60919;SDS011;59039;52.108;19.942;2023-12-04T12:38:16;58.40;;;27.60;;
60919;SDS011;59039;52.108;19.942;2023-12-04T12:40:43;45.80;;;22.70;;
60919;SDS011;59039;52.108;19.942;2023-12-04T12:43:09;58.10;;;26.70;;
60919;SDS011;59039;52.108;19.942;2023-12-04T12:45:44;53.30;;;27.10;;
60919;SDS011;59039;52.108;19.942;2023-12-04T12:48:15;70.90;;;34.50;;
60919;SDS011;59039;52.108;19.942;2023-12-04T12:50:44;80.40;;;35.60;;
60919;SDS011;59039;52.108;19.942;2023-12-04T12:53:11;67.20;;;29.70;;
60919;SDS011;59039;52.108;19.942;2023-12-04T12:55:43;55.50;;;26.50;;
60919;SDS011;59039;52.108;19.942;2023-12-04T12:58:12;55.90;;;26.50;;
60919;SDS011;59039;52.108;19.942;2023-12-04T13:00:37;46.60;;;24.30;;
60919;SDS011;59039;52.108;19.942;2023-12-04T13:03:04;54.90;;;26.50;;
60919;SDS011;59039;52.108;19.942;2023-12-04T13:05:29;67.80;;;33.10;;
60919;SDS011;59039;52.108;19.942;2023-12-04T13:07:55;63.00;;;32.70;;
60919;SDS011;59039;52.108;19.942;2023-12-04T13:10:20;58.80;;;30.70;;
60919;SDS011;59039;52.108;19.942;2023-12-04T13:12:45;56.20;;;31.00;;
60919;SDS011;59039;52.108;19.942;2023-12-04T13:15:10;58.30;;;30.40;;
60919;SDS011;59039;52.108;19.942;2023-12-04T13:17:36;77.70;;;40.70;;
60919;SDS011;59039;52.108;19.942;2023-12-04T13:20:01;79.40;;;37.20;;
60919;SDS011;59039;52.108;19.942;2023-12-04T13:22:27;82.50;;;39.60;;
60919;SDS011;59039;52.108;19.942;2023-12-04T13:24:52;78.90;;;38.30;;
60919;SDS011;59039;52.108;19.942;2023-12-04T13:27:17;72.10;;;35.60;;
60919;SDS011;59039;52.108;19.942;2023-12-04T13:29:42;71.70;;;34.40;;
60919;SDS011;59039;52.108;19.942;2023-12-04T13:32:07;77.50;;;37.80;;
60919;SDS011;59039;52.108;19.942;2023-12-04T13:34:33;91.90;;;47.60;;
60919;SDS011;59039;52.108;19.942;2023-12-04T13:36:58;67.00;;;36.20;;
60919;SDS011;59039;52.108;19.942;2023-12-04T13:39:24;81.70;;;35.70;;
60919;SDS011;59039;52.108;19.942;2023-12-04T13:41:49;69.00;;;29.90;;
60919;SDS011;59039;52.108;19.942;2023-12-04T13:44:14;55.60;;;25.10;;
60919;SDS011;59039;52.108;19.942;2023-12-04T13:46:40;59.80;;;26.90;;
60919;SDS011;59039;52.108;19.942;2023-12-04T13:49:05;82.90;;;32.40;;
60919;SDS011;59039;52.108;19.942;2023-12-04T13:51:30;86.10;;;37.10;;
60919;SDS011;59039;52.108;19.942;2023-12-04T13:53:55;73.10;;;35.80;;
60919;SDS011;59039;52.108;19.942;2023-12-04T13:56:20;98.60;;;43.70;;
60919;SDS011;59039;52.108;19.942;2023-12-04T13:58:46;114.90;;;50.00;;
60919;SDS011;59039;52.108;19.942;2023-12-04T14:01:12;127.90;;;54.70;;